sensor_id;sensor_type;location;lat;lon;timestamp;P1;durP1;ratioP1;P2;durP2;ratioP2
53714;SDS011;39608;55.630;37.864;2023-03-29T00:01:33;2.72;;;2.42;;
53714;SDS011;39608;55.630;37.864;2023-03-29T00:06:37;4.45;;;2.60;;
53714;SDS011;39608;55.630;37.864;2023-03-29T00:11:41;4.28;;;2.90;;
53714;SDS011;39608;55.630;37.864;2023-03-29T00:16:44;3.58;;;2.40;;
53714;SDS011;39608;55.630;37.864;2023-03-29T00:21:46;8.23;;;2.88;;
53714;SDS011;39608;55.630;37.864;2023-03-29T00:26:48;4.95;;;2.90;;
53714;SDS011;39608;55.630;37.864;2023-03-29T00:31:51;2.97;;;2.40;;
53714;SDS011;39608;55.630;37.864;2023-03-29T00:36:55;3.22;;;2.70;;
53714;SDS011;39608;55.630;37.864;2023-03-29T00:41:57;3.30;;;2.80;;
53714;SDS011;39608;55.630;37.864;2023-03-29T00:47:02;2.97;;;2.60;;
53714;SDS011;39608;55.630;37.864;2023-03-29T00:52:04;3.33;;;2.60;;
53714;SDS011;39608;55.630;37.864;2023-03-29T00:57:08;2.88;;;2.58;;
53714;SDS011;39608;55.630;37.864;2023-03-29T01:02:12;3.95;;;2.58;;
53714;SDS011;39608;55.630;37.864;2023-03-29T01:07:17;3.63;;;2.40;;
53714;SDS011;39608;55.630;37.864;2023-03-29T01:12:31;3.92;;;2.70;;
53714;SDS011;39608;55.630;37.864;2023-03-29T01:17:39;2.58;;;2.20;;
53714;SDS011;39608;55.630;37.864;2023-03-29T01:23:02;2.95;;;2.38;;
53714;SDS011;39608;55.630;37.864;2023-03-29T01:28:18;5.00;;;2.60;;
53714;SDS011;39608;55.630;37.864;2023-03-29T01:33:25;3.20;;;2.38;;
53714;SDS011;39608;55.630;37.864;2023-03-29T01:38:33;4.82;;;2.53;;
53714;SDS011;39608;55.630;37.864;2023-03-29T01:43:42;5.75;;;2.75;;
53714;SDS011;39608;55.630;37.864;2023-03-29T01:48:49;4.35;;;2.83;;
53714;SDS011;39608;55.630;37.864;2023-03-29T01:53:55;2.97;;;2.67;;
53714;SDS011;39608;55.630;37.864;2023-03-29T02:04:09;3.00;;;2.05;;
53714;SDS011;39608;55.630;37.864;2023-03-29T02:09:14;3.10;;;2.53;;
53714;SDS011;39608;55.630;37.864;2023-03-29T02:14:18;3.10;;;2.50;;
53714;SDS011;39608;55.630;37.864;2023-03-29T02:19:40;2.20;;;2.00;;
53714;SDS011;39608;55.630;37.864;2023-03-29T02:24:45;2.45;;;1.98;;
53714;SDS011;39608;55.630;37.864;2023-03-29T02:29:51;4.35;;;2.55;;
53714;SDS011;39608;55.630;37.864;2023-03-29T02:34:54;3.67;;;2.20;;
53714;SDS011;39608;55.630;37.864;2023-03-29T02:40:01;4.10;;;2.70;;
53714;SDS011;39608;55.630;37.864;2023-03-29T02:45:14;3.60;;;2.63;;
53714;SDS011;39608;55.630;37.864;2023-03-29T02:50:18;3.42;;;2.58;;
53714;SDS011;39608;55.630;37.864;2023-03-29T02:55:22;2.50;;;2.30;;
53714;SDS011;39608;55.630;37.864;2023-03-29T03:00:31;4.05;;;2.97;;
53714;SDS011;39608;55.630;37.864;2023-03-29T03:05:34;3.58;;;2.83;;
53714;SDS011;39608;55.630;37.864;2023-03-29T03:10:36;6.88;;;2.65;;
53714;SDS011;39608;55.630;37.864;2023-03-29T03:15:40;2.85;;;2.38;;
53714;SDS011;39608;55.630;37.864;2023-03-29T03:20:43;6.57;;;2.60;;
53714;SDS011;39608;55.630;37.864;2023-03-29T03:25:54;5.72;;;2.63;;
53714;SDS011;39608;55.630;37.864;2023-03-29T03:30:58;2.63;;;2.38;;
53714;SDS011;39608;55.630;37.864;2023-03-29T03:36:00;9.88;;;2.75;;
53714;SDS011;39608;55.630;37.864;2023-03-29T03:41:04;4.30;;;2.40;;
53714;SDS011;39608;55.630;37.864;2023-03-29T03:46:08;6.80;;;2.72;;
53714;SDS011;39608;55.630;37.864;2023-03-29T03:51:10;6.05;;;2.60;;
53714;SDS011;39608;55.630;37.864;2023-03-29T03:56:13;9.07;;;3.70;;
53714;SDS011;39608;55.630;37.864;2023-03-29T04:01:17;6.25;;;3.13;;
53714;SDS011;39608;55.630;37.864;2023-03-29T04:06:19;9.77;;;2.70;;
53714;SDS011;39608;55.630;37.864;2023-03-29T04:11:21;5.95;;;2.90;;
53714;SDS011;39608;55.630;37.864;2023-03-29T04:16:28;3.28;;;2.53;;
53714;SDS011;39608;55.630;37.864;2023-03-29T04:21:31;5.10;;;2.72;;
53714;SDS011;39608;55.630;37.864;2023-03-29T04:26:33;4.55;;;2.75;;
53714;SDS011;39608;55.630;37.864;2023-03-29T04:31:37;5.35;;;2.10;;
53714;SDS011;39608;55.630;37.864;2023-03-29T04:36:39;4.57;;;2.55;;
53714;SDS011;39608;55.630;37.864;2023-03-29T04:41:41;5.25;;;2.45;;
53714;SDS011;39608;55.630;37.864;2023-03-29T04:46:44;5.30;;;2.53;;
53714;SDS011;39608;55.630;37.864;2023-03-29T04:51:46;4.13;;;2.45;;
53714;SDS011;39608;55.630;37.864;2023-03-29T04:56:48;8.00;;;2.30;;
53714;SDS011;39608;55.630;37.864;2023-03-29T05:01:53;3.30;;;2.00;;
53714;SDS011;39608;55.630;37.864;2023-03-29T05:06:55;3.00;;;2.00;;
53714;SDS011;39608;55.630;37.864;2023-03-29T05:11:57;4.63;;;2.10;;
53714;SDS011;39608;55.630;37.864;2023-03-29T05:17:00;3.80;;;2.25;;
53714;SDS011;39608;55.630;37.864;2023-03-29T05:22:05;5.00;;;1.93;;
53714;SDS011;39608;55.630;37.864;2023-03-29T05:27:08;10.52;;;2.55;;
53714;SDS011;39608;55.630;37.864;2023-03-29T05:32:11;10.30;;;2.63;;
53714;SDS011;39608;55.630;37.864;2023-03-29T05:37:14;3.40;;;2.08;;
53714;SDS011;39608;55.630;37.864;2023-03-29T05:42:16;6.43;;;2.25;;
53714;SDS011;39608;55.630;37.864;2023-03-29T05:47:23;5.63;;;1.65;;
53714;SDS011;39608;55.630;37.864;2023-03-29T05:52:25;2.13;;;1.80;;
53714;SDS011;39608;55.630;37.864;2023-03-29T05:57:26;7.55;;;2.08;;
53714;SDS011;39608;55.630;37.864;2023-03-29T06:02:30;4.93;;;1.85;;
53714;SDS011;39608;55.630;37.864;2023-03-29T06:07:32;6.78;;;2.20;;
53714;SDS011;39608;55.630;37.864;2023-03-29T06:12:35;2.55;;;1.80;;
53714;SDS011;39608;55.630;37.864;2023-03-29T06:17:38;6.15;;;1.98;;
53714;SDS011;39608;55.630;37.864;2023-03-29T06:22:40;7.25;;;1.77;;
53714;SDS011;39608;55.630;37.864;2023-03-29T06:27:42;3.20;;;2.28;;
53714;SDS011;39608;55.630;37.864;2023-03-29T06:32:47;10.10;;;1.90;;
53714;SDS011;39608;55.630;37.864;2023-03-29T06:37:49;2.20;;;1.60;;
53714;SDS011;39608;55.630;37.864;2023-03-29T06:42:53;3.53;;;1.58;;
53714;SDS011;39608;55.630;37.864;2023-03-29T06:47:58;4.80;;;1.65;;
53714;SDS011;39608;55.630;37.864;2023-03-29T06:53:01;3.42;;;1.70;;
53714;SDS011;39608;55.630;37.864;2023-03-29T06:58:04;1.88;;;1.73;;
53714;SDS011;39608;55.630;37.864;2023-03-29T07:03:08;5.07;;;1.90;;
53714;SDS011;39608;55.630;37.864;2023-03-29T07:08:15;4.13;;;2.50;;
53714;SDS011;39608;55.630;37.864;2023-03-29T07:13:18;1.98;;;1.60;;
53714;SDS011;39608;55.630;37.864;2023-03-29T07:18:22;1.90;;;1.70;;
53714;SDS011;39608;55.630;37.864;2023-03-29T07:23:26;2.30;;;1.80;;
53714;SDS011;39608;55.630;37.864;2023-03-29T07:28:28;1.85;;;1.60;;
53714;SDS011;39608;55.630;37.864;2023-03-29T07:33:31;4.43;;;1.60;;
53714;SDS011;39608;55.630;37.864;2023-03-29T07:38:34;2.67;;;1.65;;
53714;SDS011;39608;55.630;37.864;2023-03-29T07:43:36;2.55;;;1.77;;
53714;SDS011;39608;55.630;37.864;2023-03-29T07:48:42;3.95;;;1.80;;
53714;SDS011;39608;55.630;37.864;2023-03-29T07:53:44;4.13;;;2.10;;
53714;SDS011;39608;55.630;37.864;2023-03-29T07:58:46;2.88;;;1.60;;
53714;SDS011;39608;55.630;37.864;2023-03-29T08:03:49;2.90;;;1.88;;
53714;SDS011;39608;55.630;37.864;2023-03-29T08:08:51;3.92;;;1.98;;
53714;SDS011;39608;55.630;37.864;2023-03-29T08:13:53;3.05;;;2.10;;
53714;SDS011;39608;55.630;37.864;2023-03-29T08:18:56;2.95;;;2.10;;
53714;SDS011;39608;55.630;37.864;2023-03-29T08:23:59;2.75;;;1.92;;
53714;SDS011;39608;55.630;37.864;2023-03-29T08:29:01;4.05;;;2.30;;
53714;SDS011;39608;55.630;37.864;2023-03-29T08:34:04;5.15;;;1.90;;
53714;SDS011;39608;55.630;37.864;2023-03-29T08:39:07;2.92;;;1.80;;
53714;SDS011;39608;55.630;37.864;2023-03-29T08:44:12;2.63;;;1.90;;
53714;SDS011;39608;55.630;37.864;2023-03-29T08:49:27;6.88;;;2.17;;
53714;SDS011;39608;55.630;37.864;2023-03-29T08:54:32;6.60;;;2.92;;
53714;SDS011;39608;55.630;37.864;2023-03-29T08:59:37;5.95;;;2.50;;
53714;SDS011;39608;55.630;37.864;2023-03-29T09:04:43;5.50;;;2.70;;
53714;SDS011;39608;55.630;37.864;2023-03-29T09:09:47;3.00;;;2.67;;
53714;SDS011;39608;55.630;37.864;2023-03-29T09:14:51;3.50;;;2.35;;
53714;SDS011;39608;55.630;37.864;2023-03-29T09:20:03;9.32;;;2.60;;
53714;SDS011;39608;55.630;37.864;2023-03-29T09:25:15;3.47;;;2.40;;
53714;SDS011;39608;55.630;37.864;2023-03-29T09:30:25;4.40;;;2.33;;
53714;SDS011;39608;55.630;37.864;2023-03-29T09:35:34;5.22;;;2.72;;
53714;SDS011;39608;55.630;37.864;2023-03-29T09:40:40;4.20;;;2.40;;
53714;SDS011;39608;55.630;37.864;2023-03-29T09:45:45;4.53;;;2.85;;
53714;SDS011;39608;55.630;37.864;2023-03-29T09:50:54;3.55;;;2.20;;
53714;SDS011;39608;55.630;37.864;2023-03-29T09:55:56;4.65;;;3.00;;
53714;SDS011;39608;55.630;37.864;2023-03-29T10:01:02;2.90;;;2.58;;
53714;SDS011;39608;55.630;37.864;2023-03-29T10:06:10;3.97;;;3.00;;
53714;SDS011;39608;55.630;37.864;2023-03-29T10:11:16;4.57;;;2.75;;
53714;SDS011;39608;55.630;37.864;2023-03-29T10:16:23;3.60;;;2.95;;
53714;SDS011;39608;55.630;37.864;2023-03-29T10:21:30;4.55;;;3.13;;
53714;SDS011;39608;55.630;37.864;2023-03-29T10:26:33;4.75;;;3.63;;
53714;SDS011;39608;55.630;37.864;2023-03-29T10:31:38;4.75;;;3.72;;
53714;SDS011;39608;55.630;37.864;2023-03-29T10:36:46;6.45;;;3.92;;
53714;SDS011;39608;55.630;37.864;2023-03-29T10:41:57;4.95;;;3.88;;
53714;SDS011;39608;55.630;37.864;2023-03-29T10:47:06;4.38;;;3.35;;
53714;SDS011;39608;55.630;37.864;2023-03-29T10:52:16;8.52;;;4.50;;
53714;SDS011;39608;55.630;37.864;2023-03-29T10:57:21;5.70;;;4.32;;
53714;SDS011;39608;55.630;37.864;2023-03-29T11:08:04;6.00;;;3.70;;
53714;SDS011;39608;55.630;37.864;2023-03-29T11:13:28;6.18;;;4.03;;
53714;SDS011;39608;55.630;37.864;2023-03-29T11:18:53;6.82;;;4.00;;
53714;SDS011;39608;55.630;37.864;2023-03-29T11:24:17;4.85;;;4.07;;
53714;SDS011;39608;55.630;37.864;2023-03-29T11:29:29;7.10;;;4.85;;
53714;SDS011;39608;55.630;37.864;2023-03-29T11:34:37;6.32;;;4.22;;
53714;SDS011;39608;55.630;37.864;2023-03-29T11:39:55;7.53;;;4.50;;
53714;SDS011;39608;55.630;37.864;2023-03-29T11:45:10;6.17;;;3.97;;
53714;SDS011;39608;55.630;37.864;2023-03-29T11:50:17;6.38;;;4.10;;
53714;SDS011;39608;55.630;37.864;2023-03-29T11:55:26;7.93;;;3.75;;
53714;SDS011;39608;55.630;37.864;2023-03-29T12:00:31;7.32;;;4.00;;
53714;SDS011;39608;55.630;37.864;2023-03-29T12:05:38;8.50;;;4.25;;
53714;SDS011;39608;55.630;37.864;2023-03-29T12:15:51;5.53;;;4.40;;
53714;SDS011;39608;55.630;37.864;2023-03-29T12:20:59;5.53;;;3.70;;
53714;SDS011;39608;55.630;37.864;2023-03-29T12:26:07;6.15;;;4.03;;
53714;SDS011;39608;55.630;37.864;2023-03-29T12:31:20;5.25;;;3.90;;
53714;SDS011;39608;55.630;37.864;2023-03-29T12:42:02;4.63;;;3.53;;
53714;SDS011;39608;55.630;37.864;2023-03-29T12:47:08;4.95;;;3.55;;
53714;SDS011;39608;55.630;37.864;2023-03-29T12:52:22;7.18;;;3.42;;
53714;SDS011;39608;55.630;37.864;2023-03-29T12:57:38;4.35;;;3.40;;
53714;SDS011;39608;55.630;37.864;2023-03-29T13:02:41;4.13;;;3.10;;
53714;SDS011;39608;55.630;37.864;2023-03-29T13:07:45;3.42;;;2.33;;
53714;SDS011;39608;55.630;37.864;2023-03-29T13:12:49;3.75;;;2.75;;
53714;SDS011;39608;55.630;37.864;2023-03-29T13:17:53;5.53;;;2.90;;
53714;SDS011;39608;55.630;37.864;2023-03-29T13:23:09;2.60;;;2.30;;
53714;SDS011;39608;55.630;37.864;2023-03-29T13:28:26;3.90;;;2.60;;
53714;SDS011;39608;55.630;37.864;2023-03-29T13:33:38;4.20;;;2.75;;
53714;SDS011;39608;55.630;37.864;2023-03-29T13:38:52;4.43;;;2.90;;
53714;SDS011;39608;55.630;37.864;2023-03-29T13:44:03;4.20;;;2.90;;
53714;SDS011;39608;55.630;37.864;2023-03-29T13:49:18;5.03;;;2.88;;
53714;SDS011;39608;55.630;37.864;2023-03-29T13:54:25;3.70;;;3.00;;
53714;SDS011;39608;55.630;37.864;2023-03-29T13:59:32;4.90;;;3.22;;
53714;SDS011;39608;55.630;37.864;2023-03-29T14:04:42;7.07;;;3.65;;
53714;SDS011;39608;55.630;37.864;2023-03-29T14:09:48;4.57;;;3.20;;
53714;SDS011;39608;55.630;37.864;2023-03-29T14:14:57;4.47;;;3.28;;
53714;SDS011;39608;55.630;37.864;2023-03-29T14:20:04;4.15;;;3.08;;
53714;SDS011;39608;55.630;37.864;2023-03-29T14:25:11;6.82;;;3.17;;
53714;SDS011;39608;55.630;37.864;2023-03-29T14:30:18;3.63;;;2.72;;
53714;SDS011;39608;55.630;37.864;2023-03-29T14:35:26;8.02;;;2.85;;
53714;SDS011;39608;55.630;37.864;2023-03-29T14:40:31;5.03;;;2.92;;
53714;SDS011;39608;55.630;37.864;2023-03-29T14:45:36;6.18;;;3.50;;
53714;SDS011;39608;55.630;37.864;2023-03-29T14:50:39;4.85;;;2.88;;
53714;SDS011;39608;55.630;37.864;2023-03-29T14:55:43;6.00;;;3.20;;
53714;SDS011;39608;55.630;37.864;2023-03-29T15:00:50;3.95;;;2.65;;
53714;SDS011;39608;55.630;37.864;2023-03-29T15:05:53;5.32;;;3.15;;
53714;SDS011;39608;55.630;37.864;2023-03-29T15:10:58;4.97;;;3.38;;
53714;SDS011;39608;55.630;37.864;2023-03-29T15:16:04;5.03;;;3.28;;
53714;SDS011;39608;55.630;37.864;2023-03-29T15:21:07;6.70;;;3.03;;
53714;SDS011;39608;55.630;37.864;2023-03-29T15:26:11;7.07;;;3.53;;
53714;SDS011;39608;55.630;37.864;2023-03-29T15:31:17;5.85;;;3.50;;
53714;SDS011;39608;55.630;37.864;2023-03-29T15:41:25;5.82;;;3.55;;
53714;SDS011;39608;55.630;37.864;2023-03-29T15:46:29;7.78;;;3.22;;
53714;SDS011;39608;55.630;37.864;2023-03-29T15:51:31;8.25;;;4.47;;
53714;SDS011;39608;55.630;37.864;2023-03-29T15:56:45;9.40;;;4.32;;
53714;SDS011;39608;55.630;37.864;2023-03-29T16:01:51;8.90;;;4.10;;
53714;SDS011;39608;55.630;37.864;2023-03-29T16:06:57;12.40;;;4.10;;
53714;SDS011;39608;55.630;37.864;2023-03-29T16:12:00;9.07;;;3.83;;
53714;SDS011;39608;55.630;37.864;2023-03-29T16:17:03;13.55;;;4.13;;
53714;SDS011;39608;55.630;37.864;2023-03-29T16:22:06;15.95;;;4.65;;
53714;SDS011;39608;55.630;37.864;2023-03-29T16:27:08;7.22;;;4.03;;
53714;SDS011;39608;55.630;37.864;2023-03-29T16:32:15;8.65;;;4.55;;
53714;SDS011;39608;55.630;37.864;2023-03-29T16:37:17;13.40;;;4.15;;
53714;SDS011;39608;55.630;37.864;2023-03-29T16:42:19;7.05;;;4.38;;
53714;SDS011;39608;55.630;37.864;2023-03-29T16:47:23;7.35;;;4.10;;
53714;SDS011;39608;55.630;37.864;2023-03-29T16:52:26;10.30;;;4.50;;
53714;SDS011;39608;55.630;37.864;2023-03-29T16:57:28;6.55;;;4.25;;
53714;SDS011;39608;55.630;37.864;2023-03-29T17:02:31;6.90;;;4.32;;
53714;SDS011;39608;55.630;37.864;2023-03-29T17:07:33;8.75;;;5.00;;
53714;SDS011;39608;55.630;37.864;2023-03-29T17:12:35;6.05;;;4.60;;
53714;SDS011;39608;55.630;37.864;2023-03-29T17:17:39;5.85;;;4.72;;
53714;SDS011;39608;55.630;37.864;2023-03-29T17:22:41;6.50;;;4.90;;
53714;SDS011;39608;55.630;37.864;2023-03-29T17:27:43;10.27;;;5.15;;
53714;SDS011;39608;55.630;37.864;2023-03-29T17:32:48;8.27;;;5.05;;
53714;SDS011;39608;55.630;37.864;2023-03-29T17:37:51;6.45;;;4.97;;
53714;SDS011;39608;55.630;37.864;2023-03-29T17:42:53;6.32;;;4.63;;
53714;SDS011;39608;55.630;37.864;2023-03-29T17:47:57;8.18;;;5.75;;
53714;SDS011;39608;55.630;37.864;2023-03-29T17:52:59;10.98;;;7.38;;
53714;SDS011;39608;55.630;37.864;2023-03-29T17:58:01;13.13;;;7.95;;
53714;SDS011;39608;55.630;37.864;2023-03-29T18:03:05;12.00;;;7.82;;
53714;SDS011;39608;55.630;37.864;2023-03-29T18:08:07;11.27;;;7.13;;
53714;SDS011;39608;55.630;37.864;2023-03-29T18:13:09;11.40;;;7.40;;
53714;SDS011;39608;55.630;37.864;2023-03-29T18:18:14;11.32;;;7.22;;
53714;SDS011;39608;55.630;37.864;2023-03-29T18:23:17;16.83;;;8.45;;
53714;SDS011;39608;55.630;37.864;2023-03-29T18:28:19;11.50;;;7.50;;
53714;SDS011;39608;55.630;37.864;2023-03-29T18:33:25;10.43;;;7.88;;
53714;SDS011;39608;55.630;37.864;2023-03-29T18:38:29;11.57;;;7.72;;
53714;SDS011;39608;55.630;37.864;2023-03-29T18:43:34;10.02;;;6.72;;
53714;SDS011;39608;55.630;37.864;2023-03-29T18:48:39;14.30;;;7.80;;
53714;SDS011;39608;55.630;37.864;2023-03-29T18:53:42;11.38;;;6.70;;
53714;SDS011;39608;55.630;37.864;2023-03-29T18:58:44;10.77;;;6.70;;
53714;SDS011;39608;55.630;37.864;2023-03-29T19:03:47;12.05;;;6.78;;
53714;SDS011;39608;55.630;37.864;2023-03-29T19:08:49;14.88;;;6.43;;
53714;SDS011;39608;55.630;37.864;2023-03-29T19:13:53;12.63;;;6.55;;
53714;SDS011;39608;55.630;37.864;2023-03-29T19:18:56;9.77;;;6.53;;
53714;SDS011;39608;55.630;37.864;2023-03-29T19:23:59;11.98;;;7.00;;
53714;SDS011;39608;55.630;37.864;2023-03-29T19:29:04;8.85;;;6.88;;
53714;SDS011;39608;55.630;37.864;2023-03-29T19:34:07;14.02;;;7.07;;
53714;SDS011;39608;55.630;37.864;2023-03-29T19:39:10;8.95;;;6.40;;
53714;SDS011;39608;55.630;37.864;2023-03-29T19:44:12;9.52;;;6.70;;
53714;SDS011;39608;55.630;37.864;2023-03-29T19:49:15;19.50;;;7.50;;
53714;SDS011;39608;55.630;37.864;2023-03-29T19:54:18;11.68;;;6.82;;
53714;SDS011;39608;55.630;37.864;2023-03-29T19:59:20;9.35;;;6.80;;
53714;SDS011;39608;55.630;37.864;2023-03-29T20:04:23;9.73;;;6.95;;
53714;SDS011;39608;55.630;37.864;2023-03-29T20:09:27;11.25;;;7.85;;
53714;SDS011;39608;55.630;37.864;2023-03-29T20:14:30;11.80;;;7.07;;
53714;SDS011;39608;55.630;37.864;2023-03-29T20:19:35;11.07;;;7.22;;
53714;SDS011;39608;55.630;37.864;2023-03-29T20:24:37;10.63;;;7.55;;
53714;SDS011;39608;55.630;37.864;2023-03-29T20:29:39;10.70;;;7.55;;
53714;SDS011;39608;55.630;37.864;2023-03-29T20:34:42;11.32;;;7.20;;
53714;SDS011;39608;55.630;37.864;2023-03-29T20:39:44;17.80;;;7.78;;
53714;SDS011;39608;55.630;37.864;2023-03-29T20:44:46;12.18;;;7.68;;
53714;SDS011;39608;55.630;37.864;2023-03-29T20:49:51;13.10;;;7.57;;
53714;SDS011;39608;55.630;37.864;2023-03-29T20:54:53;16.33;;;7.90;;
53714;SDS011;39608;55.630;37.864;2023-03-29T20:59:55;13.45;;;7.95;;
53714;SDS011;39608;55.630;37.864;2023-03-29T21:04:59;17.40;;;8.18;;
53714;SDS011;39608;55.630;37.864;2023-03-29T21:10:01;13.38;;;7.47;;
53714;SDS011;39608;55.630;37.864;2023-03-29T21:15:04;17.50;;;8.43;;
53714;SDS011;39608;55.630;37.864;2023-03-29T21:20:09;20.50;;;8.63;;
53714;SDS011;39608;55.630;37.864;2023-03-29T21:25:12;15.60;;;8.73;;
53714;SDS011;39608;55.630;37.864;2023-03-29T21:30:15;14.57;;;8.55;;
53714;SDS011;39608;55.630;37.864;2023-03-29T21:35:18;14.65;;;8.55;;
53714;SDS011;39608;55.630;37.864;2023-03-29T21:40:20;16.80;;;9.00;;
53714;SDS011;39608;55.630;37.864;2023-03-29T21:45:22;17.80;;;9.05;;
53714;SDS011;39608;55.630;37.864;2023-03-29T21:50:25;17.08;;;9.25;;
53714;SDS011;39608;55.630;37.864;2023-03-29T21:55:27;21.70;;;11.18;;
53714;SDS011;39608;55.630;37.864;2023-03-29T22:00:29;12.48;;;7.85;;
53714;SDS011;39608;55.630;37.864;2023-03-29T22:05:33;11.95;;;8.13;;
53714;SDS011;39608;55.630;37.864;2023-03-29T22:10:36;15.95;;;7.60;;
53714;SDS011;39608;55.630;37.864;2023-03-29T22:15:40;14.75;;;7.80;;
53714;SDS011;39608;55.630;37.864;2023-03-29T22:20:44;12.25;;;8.07;;
53714;SDS011;39608;55.630;37.864;2023-03-29T22:25:47;16.02;;;7.07;;
53714;SDS011;39608;55.630;37.864;2023-03-29T22:30:49;11.40;;;7.20;;
53714;SDS011;39608;55.630;37.864;2023-03-29T22:35:52;15.77;;;7.57;;
53714;SDS011;39608;55.630;37.864;2023-03-29T22:40:55;10.82;;;7.10;;
53714;SDS011;39608;55.630;37.864;2023-03-29T22:45:57;9.68;;;6.70;;
53714;SDS011;39608;55.630;37.864;2023-03-29T22:51:00;12.20;;;7.20;;
53714;SDS011;39608;55.630;37.864;2023-03-29T22:56:03;11.48;;;8.18;;
53714;SDS011;39608;55.630;37.864;2023-03-29T23:01:06;11.25;;;6.80;;
53714;SDS011;39608;55.630;37.864;2023-03-29T23:06:09;10.38;;;6.40;;
53714;SDS011;39608;55.630;37.864;2023-03-29T23:11:11;13.55;;;6.97;;
53714;SDS011;39608;55.630;37.864;2023-03-29T23:16:13;11.07;;;6.30;;
53714;SDS011;39608;55.630;37.864;2023-03-29T23:21:17;8.65;;;6.22;;
53714;SDS011;39608;55.630;37.864;2023-03-29T23:26:19;8.88;;;7.00;;
53714;SDS011;39608;55.630;37.864;2023-03-29T23:31:22;7.65;;;6.43;;
53714;SDS011;39608;55.630;37.864;2023-03-29T23:36:25;8.45;;;7.25;;
53714;SDS011;39608;55.630;37.864;2023-03-29T23:41:30;9.68;;;7.20;;
53714;SDS011;39608;55.630;37.864;2023-03-29T23:46:33;8.48;;;6.32;;
53714;SDS011;39608;55.630;37.864;2023-03-29T23:51:36;8.57;;;6.97;;
53714;SDS011;39608;55.630;37.864;2023-03-29T23:56:38;7.40;;;6.30;;
